Time;durP1;ratioP1;P1;durP2;ratioP2;P2;SDS_P1;SDS_P2;PMS_P1;PMS_P2;Temp;Humidity;BMP_temperature;BMP_pressure;BME280_temperature;BME280_humidity;BME280_pressure;Samples;Min_cycle;Max_cycle;Signal;HPM_P1;HPM_P2
2022/09/21 00:01:18;;;;;;;10.43;5.57;;;;;;;9.01;100.00;99102.19;4354191;32;20032;-72
2022/09/21 00:03:46;;;;;;;9.25;5.72;;;;;;;9.40;100.00;99158.88;4354917;32;20047;-68
2022/09/21 00:06:18;;;;;;;18.87;6.57;;;;;;;9.39;100.00;99154.53;4355301;32;20061;-69
2022/09/21 00:08:45;;;;;;;13.10;5.40;;;;;;;9.35;100.00;99164.16;4355677;32;20040;-69
2022/09/21 00:11:14;;;;;;;10.00;5.43;;;;;;;9.08;100.00;99110.94;4353586;32;20085;-70
2022/09/21 00:13:41;;;;;;;9.98;5.12;;;;;;;9.26;100.00;99136.00;4356008;32;20039;-70
2022/09/21 00:16:08;;;;;;;8.90;5.43;;;;;;;9.26;100.00;99146.75;4370848;32;20110;-70
2022/09/21 00:18:35;;;;;;;11.30;5.93;;;;;;;9.27;100.00;99148.41;4354501;32;20480;-70
2022/09/21 00:21:10;;;;;;;12.48;6.03;;;;;;;9.03;100.00;99116.22;4353495;32;20055;-74
2022/09/21 00:23:37;;;;;;;9.40;4.90;;;;;;;9.25;100.00;99162.06;4354449;32;20052;-70
2022/09/21 00:26:10;;;;;;;8.90;5.12;;;;;;;9.12;100.00;99148.09;4360202;32;20044;-69
2022/09/21 00:28:39;;;;;;;7.22;5.20;;;;;;;8.86;100.00;99112.62;4370866;32;20146;-69
2022/09/21 00:31:10;;;;;;;11.27;5.32;;;;;;;9.22;100.00;99167.09;4367850;32;20032;-71
2022/09/21 00:33:41;;;;;;;10.05;4.95;;;;;;;8.91;100.00;99123.47;4370527;32;20047;-69
2022/09/21 00:36:11;;;;;;;5.95;4.43;;;;;;;9.26;100.00;99168.25;4368838;32;20036;-70
2022/09/21 00:38:38;;;;;;;9.95;5.55;;;;;;;9.29;100.00;99157.03;4367952;32;20036;-69
2022/09/21 00:41:06;;;;;;;8.23;5.47;;;;;;;9.29;100.00;99167.78;4354439;32;20043;-69
2022/09/21 00:43:35;;;;;;;7.85;5.35;;;;;;;9.34;100.00;99175.94;4369967;32;20399;-68
2022/09/21 00:46:05;;;;;;;14.93;5.97;;;;;;;9.01;100.00;99123.69;4381068;32;20042;-69
2022/09/21 00:48:32;;;;;;;10.35;5.28;;;;;;;8.98;100.00;99124.16;4384146;32;20032;-69
2022/09/21 00:51:05;;;;;;;9.30;5.25;;;;;;;8.54;100.00;99036.00;4352109;32;20105;-69
2022/09/21 00:53:38;;;;;;;8.52;4.90;;;;;;;9.34;100.00;99167.88;4356967;32;20044;-70
2022/09/21 00:56:07;;;;;;;10.52;5.03;;;;;;;9.05;100.00;99119.47;4383947;32;20039;-69
2022/09/21 00:58:42;;;;;;;5.57;4.07;;;;;;;9.42;100.00;99172.06;4353597;32;20385;-74
2022/09/21 01:01:10;;;;;;;9.77;5.10;;;;;;;9.11;100.00;99127.62;4350697;32;20145;-69
2022/09/21 01:03:38;;;;;;;11.38;4.75;;;;;;;8.80;100.00;99074.13;4340605;33;20051;-69
2022/09/21 01:06:04;;;;;;;8.52;5.15;;;;;;;9.26;100.00;99163.69;4340271;33;20033;-70
2022/09/21 01:08:32;;;;;;;9.77;5.15;;;;;;;9.22;100.00;99167.09;4339308;33;20050;-69
2022/09/21 01:11:24;;;;;;;12.05;5.72;;;;;;;8.97;100.00;99133.28;4341257;33;20063;-69
2022/09/21 01:14:06;;;;;;;15.90;6.53;;;;;;;9.34;100.00;99165.19;4354872;32;20066;-68
2022/09/21 01:16:44;;;;;;;8.48;4.70;;;;;;;8.97;100.00;99127.09;4338493;33;20013;-69
2022/09/21 01:19:45;;;;;;;10.70;5.60;;;;;;;9.14;100.00;99164.78;4337978;33;20109;-69
2022/09/21 01:22:43;;;;;;;9.63;6.32;;;;;;;8.68;100.00;99106.38;4344028;32;20941;-69
2022/09/21 01:25:28;;;;;;;11.25;5.20;;;;;;;9.16;100.00;99173.41;4338133;33;20450;-72
2022/09/21 01:28:38;;;;;;;10.05;6.03;;;;;;;8.89;100.00;99171.25;4335736;33;20044;-68
2022/09/21 01:31:10;;;;;;;9.10;5.12;;;;;;;8.78;100.00;99182.81;4368374;32;20068;-69
2022/09/21 01:33:45;;;;;;;8.65;5.35;;;;;;;8.34;100.00;99118.69;4369414;32;20035;-69
2022/09/21 01:36:16;;;;;;;9.82;4.78;;;;;;;8.47;100.00;99139.16;4379173;32;20397;-69
2022/09/21 01:38:48;;;;;;;13.70;5.25;;;;;;;8.46;100.00;99137.53;4383622;32;20043;-69
2022/09/21 01:41:18;;;;;;;11.32;6.40;;;;;;;8.36;100.00;99138.91;4384761;32;20036;-68
2022/09/21 01:43:50;;;;;;;13.95;5.62;;;;;;;8.66;100.00;99180.94;4367871;32;20068;-69
2022/09/21 01:46:19;;;;;;;9.32;6.37;;;;;;;8.57;100.00;99176.97;4369327;32;20051;-72
2022/09/21 01:48:51;;;;;;;13.88;5.78;;;;;;;8.45;100.00;99146.63;4354745;32;20471;-68
2022/09/21 01:51:20;;;;;;;10.80;5.72;;;;;;;8.81;100.00;99185.84;4354579;32;20040;-68
2022/09/21 01:53:53;;;;;;;12.85;6.30;;;;;;;8.52;100.00;99141.94;4325346;33;20037;-69
2022/09/21 01:56:37;;;;;;;16.85;6.32;;;;;;;8.55;100.00;99141.47;4321727;33;20044;-70
2022/09/21 01:59:19;;;;;;;9.88;6.70;;;;;;;8.58;100.00;99145.56;4324301;33;20043;-69
2022/09/21 02:01:54;;;;;;;10.35;5.62;;;;;;;8.20;100.00;99102.03;4317215;33;20399;-73
2022/09/21 02:04:20;;;;;;;15.02;6.82;;;;;;;8.81;100.00;99195.78;4324675;33;20076;-69
2022/09/21 02:06:49;;;;;;;9.20;5.87;;;;;;;8.75;100.00;99185.97;4325012;33;20348;-69
2022/09/21 02:09:16;;;;;;;10.13;5.57;;;;;;;8.54;100.00;99156.78;4324963;33;20161;-69
2022/09/21 02:11:43;;;;;;;12.82;6.82;;;;;;;8.91;100.00;99199.47;4323581;33;20040;-69
2022/09/21 02:14:19;;;;;;;15.07;6.68;;;;;;;8.68;100.00;99157.38;4331443;32;20101;-68
2022/09/21 02:17:06;;;;;;;14.48;6.95;;;;;;;8.91;100.00;99185.25;4364122;32;20065;-69
2022/09/21 02:19:48;;;;;;;12.18;6.57;;;;;;;10.03;100.00;99201.97;4371018;32;20065;-69
2022/09/21 02:22:28;;;;;;;18.12;6.65;;;;;;;10.61;100.00;99201.88;4384215;32;20073;-69
2022/09/21 02:25:03;;;;;;;14.45;6.45;;;;;;;10.64;100.00;99199.53;4400556;32;20034;-74
2022/09/21 02:27:54;;;;;;;15.80;6.82;;;;;;;10.43;100.00;99160.69;4416594;32;20054;-69
2022/09/21 02:30:26;;;;;;;15.43;6.03;;;;;;;10.23;100.00;99149.56;4419130;32;20074;-69
2022/09/21 02:33:31;;;;;;;11.15;6.40;;;;;;;10.49;100.00;99191.22;4419332;32;20466;-69
2022/09/21 02:36:14;;;;;;;10.80;6.95;;;;;;;10.58;100.00;99199.66;4373225;32;20047;-74
2022/09/21 02:39:06;;;;;;;8.95;6.50;;;;;;;10.57;100.00;99187.28;4380888;32;20096;-69
2022/09/21 02:41:39;;;;;;;12.15;7.18;;;;;;;10.89;100.00;99207.16;4370120;32;20190;-73
2022/09/21 02:44:17;;;;;;;13.45;7.90;;;;;;;10.54;100.00;99156.28;4381545;32;21010;-69
2022/09/21 02:46:55;;;;;;;10.07;6.80;;;;;;;10.79;100.00;99196.25;4387202;32;20057;-69
2022/09/21 02:49:34;;;;;;;14.00;6.62;;;;;;;10.78;100.00;99205.38;4384701;32;20054;-72
2022/09/21 02:52:07;;;;;;;8.30;5.95;;;;;;;10.75;100.00;99205.88;4371830;32;20036;-69
2022/09/21 02:54:37;;;;;;;14.30;7.15;;;;;;;10.87;100.00;99163.50;4365991;32;20032;-69
2022/09/21 02:57:04;;;;;;;18.25;8.20;;;;;;;10.65;100.00;99157.25;4356645;32;20073;-74
2022/09/21 02:59:31;;;;;;;14.27;8.35;;;;;;;10.93;100.00;99201.28;4354610;32;21198;-69
2022/09/21 03:01:58;;;;;;;13.45;7.60;;;;;;;10.98;100.00;99212.16;4358219;32;20067;-69
2022/09/21 03:04:26;;;;;;;10.70;7.25;;;;;;;10.93;100.00;99201.28;4326163;33;20054;-69
2022/09/21 03:06:52;;;;;;;9.40;6.82;;;;;;;10.75;100.00;99156.59;4296696;33;20062;-69
2022/09/21 03:09:23;;;;;;;11.10;6.72;;;;;;;10.94;100.00;99219.06;4289225;33;20033;-74
2022/09/21 03:11:50;;;;;;;10.63;6.35;;;;;;;10.57;100.00;99160.38;4299262;33;20180;-70
2022/09/21 03:14:18;;;;;;;11.65;7.37;;;;;;;11.03;100.00;99220.28;4312723;33;20058;-70
2022/09/21 03:16:44;;;;;;;10.38;6.47;;;;;;;10.74;100.00;99161.16;4327022;33;20032;-70
2022/09/21 03:19:11;;;;;;;12.85;6.28;;;;;;;10.98;100.00;99210.25;4326044;33;20079;-73
2022/09/21 03:21:37;;;;;;;11.40;7.20;;;;;;;10.88;100.00;99189.38;4325104;33;20070;-70
2022/09/21 03:24:04;;;;;;;14.80;6.15;;;;;;;11.01;100.00;99225.09;4336853;33;20035;-70
2022/09/21 03:26:30;;;;;;;13.62;7.37;;;;;;;10.52;100.00;99121.53;4341715;32;20477;-70
2022/09/21 03:28:57;;;;;;;11.02;7.03;;;;;;;11.20;100.00;99222.94;4328150;33;20040;-74
2022/09/21 03:31:23;;;;;;;9.35;6.55;;;;;;;11.01;100.00;99225.09;4338598;33;20040;-70
2022/09/21 03:33:50;;;;;;;9.13;6.62;;;;;;;10.59;100.00;99179.78;4338172;33;20087;-69
2022/09/21 03:36:16;;;;;;;13.88;7.65;;;;;;;10.69;100.00;99196.06;4361557;32;20039;-70
2022/09/21 03:38:43;;;;;;;13.68;7.05;;;;;;;11.01;100.00;99228.63;4371108;32;20053;-70
2022/09/21 03:41:09;;;;;;;10.90;6.50;;;;;;;10.62;100.00;99188.16;4369688;32;20052;-72
2022/09/21 03:43:36;;;;;;;13.65;7.07;;;;;;;10.93;100.00;99233.59;4372116;32;20396;-70
2022/09/21 03:46:02;;;;;;;11.80;6.30;;;;;;;10.52;100.00;99191.53;4388832;32;20104;-70
2022/09/21 03:48:31;;;;;;;12.70;6.53;;;;;;;10.64;100.00;99187.94;4400653;32;20101;-70
2022/09/21 03:50:58;;;;;;;13.38;6.68;;;;;;;10.45;100.00;99149.66;4415064;32;20084;-70
2022/09/21 03:53:24;;;;;;;9.70;6.35;;;;;;;10.60;100.00;99197.56;4426808;32;20055;-73
2022/09/21 03:55:57;;;;;;;9.35;6.65;;;;;;;10.32;100.00;99150.78;4420099;32;20076;-70
2022/09/21 03:58:23;;;;;;;11.98;6.72;;;;;;;10.74;100.00;99247.34;4433767;32;20418;-70
2022/09/21 04:00:50;;;;;;;10.32;6.18;;;;;;;10.84;100.00;99252.06;4434157;32;20056;-70
2022/09/21 04:03:16;;;;;;;10.55;5.72;;;;;;;10.64;100.00;99204.09;4433654;32;20083;-69
2022/09/21 04:05:43;;;;;;;9.65;6.75;;;;;;;10.96;100.00;99243.88;4431543;32;20048;-71
2022/09/21 04:08:09;;;;;;;17.42;7.20;;;;;;;11.07;100.00;99237.56;4433736;32;20046;-70
2022/09/21 04:10:39;;;;;;;11.32;6.12;;;;;;;11.02;100.00;99237.50;4431595;32;20492;-69
2022/09/21 04:13:06;;;;;;;12.93;7.20;;;;;;;10.59;100.00;99217.47;4431745;32;20059;-69
2022/09/21 04:15:32;;;;;;;12.52;6.80;;;;;;;10.46;100.00;99207.84;4415041;32;20060;-70
2022/09/21 04:17:59;;;;;;;8.13;6.20;;;;;;;10.68;100.00;99218.69;4356139;32;20039;-70
2022/09/21 04:20:25;;;;;;;9.57;6.78;;;;;;;10.88;100.00;99259.41;4354602;32;20065;-70
2022/09/21 04:22:51;;;;;;;8.18;6.55;;;;;;;10.74;100.00;99217.72;4355991;32;20104;-70
2022/09/21 04:25:18;;;;;;;12.15;6.90;;;;;;;10.66;100.00;99261.22;4367961;32;20044;-70
2022/09/21 04:27:44;;;;;;;17.42;7.03;;;;;;;10.71;100.00;99220.91;4370117;32;20054;-70
2022/09/21 04:30:13;;;;;;;8.27;6.32;;;;;;;10.31;100.00;99184.16;4368438;32;20533;-70
2022/09/21 04:32:39;;;;;;;11.60;6.72;;;;;;;10.87;100.00;99271.25;4355732;32;20051;-69
2022/09/21 04:35:07;;;;;;;10.25;6.15;;;;;;;10.75;100.00;99273.19;4354653;32;20043;-68
2022/09/21 04:37:33;;;;;;;10.82;5.90;;;;;;;10.94;100.00;99263.00;4356007;32;20050;-69
2022/09/21 04:40:00;;;;;;;12.85;6.93;;;;;;;10.69;100.00;99263.41;4344241;32;20036;-73
2022/09/21 04:42:26;;;;;;;11.02;6.62;;;;;;;10.38;100.00;99222.53;4340703;32;20717;-69
2022/09/21 04:44:52;;;;;;;11.20;7.18;;;;;;;10.55;100.00;99233.31;4351370;32;20032;-70
2022/09/21 04:47:22;;;;;;;8.70;6.28;;;;;;;10.92;100.00;99253.53;4379138;32;20068;-69
2022/09/21 04:49:49;;;;;;;14.05;7.22;;;;;;;10.79;100.00;99225.88;4404488;32;20034;-74
2022/09/21 04:52:15;;;;;;;8.18;5.87;;;;;;;10.74;100.00;99236.56;4411723;32;20026;-69
2022/09/21 04:54:41;;;;;;;12.63;6.97;;;;;;;10.95;100.00;99274.59;4398707;32;20074;-69
2022/09/21 04:57:08;;;;;;;10.80;7.22;;;;;;;10.57;100.00;99225.00;4354985;32;20040;-70
2022/09/21 04:59:34;;;;;;;11.10;7.03;;;;;;;10.78;100.00;99231.50;4354452;32;20370;-70
2022/09/21 05:02:00;;;;;;;11.73;7.32;;;;;;;10.63;100.00;99192.50;4355097;32;20040;-72
2022/09/21 05:04:27;;;;;;;15.50;7.18;;;;;;;11.18;100.00;99263.59;4364063;32;20341;-69
2022/09/21 05:06:53;;;;;;;11.65;7.60;;;;;;;11.13;100.00;99238.47;4338853;33;20048;-70
2022/09/21 05:12:05;;;;;;;14.02;7.53;;;;;;;10.89;100.00;99254.84;4337164;33;20058;-69
2022/09/21 05:14:31;;;;;;;10.93;6.70;;;;;;;11.07;100.00;99245.66;4340066;33;20130;-69
2022/09/21 05:16:58;;;;;;;14.52;7.10;;;;;;;10.95;100.00;99236.88;4338911;33;20058;-69
2022/09/21 05:19:24;;;;;;;9.65;7.05;;;;;;;11.38;100.00;99302.72;4338445;33;20402;-69
2022/09/21 05:21:51;;;;;;;15.07;8.30;;;;;;;11.33;100.00;99291.84;4339263;33;20503;-70
2022/09/21 05:24:17;;;;;;;10.95;7.37;;;;;;;11.29;100.00;99293.41;4321572;33;20074;-70
2022/09/21 05:26:43;;;;;;;12.82;8.52;;;;;;;10.85;100.00;99232.13;4333606;33;20430;-71
2022/09/21 05:29:10;;;;;;;15.07;6.87;;;;;;;10.98;100.00;99264.13;4366323;32;20511;-69
2022/09/21 05:31:39;;;;;;;6.82;4.68;;;;;;;11.05;100.00;99313.28;4360688;32;20039;-68
2022/09/21 05:34:14;;;;;;;10.20;5.70;;;;;;;11.08;100.00;99314.69;4367274;32;20040;-70
2022/09/21 05:37:18;;;;;;;8.60;5.60;;;;;;;11.04;100.00;99265.00;4338197;33;20926;-69
2022/09/21 05:39:45;;;;;;;10.18;6.10;;;;;;;11.39;100.00;99307.03;4309608;33;20037;-73
2022/09/21 05:42:12;;;;;;;9.43;6.35;;;;;;;11.31;100.00;99258.94;4309681;33;20398;-69
2022/09/21 05:44:38;;;;;;;12.45;6.35;;;;;;;11.17;100.00;99270.09;4301418;33;20116;-69
2022/09/21 05:47:14;;;;;;;13.35;8.70;;;;;;;11.41;100.00;99302.22;4310330;33;20484;-70
2022/09/21 05:50:22;;;;;;;7.95;5.80;;;;;;;11.58;100.00;99305.69;4294754;33;20059;-73
2022/09/21 05:53:08;;;;;;;13.23;5.97;;;;;;;11.49;100.00;99317.97;4266578;33;20045;-69
2022/09/21 05:55:57;;;;;;;9.50;5.30;;;;;;;11.09;100.00;99275.91;4275285;33;20075;-69
2022/09/21 05:58:29;;;;;;;8.35;6.03;;;;;;;11.36;100.00;99318.31;4269397;33;20068;-70
2022/09/21 06:01:40;;;;;;;11.70;6.03;;;;;;;11.14;100.00;99278.66;4263270;33;20388;-69
2022/09/21 06:04:11;;;;;;;6.72;5.18;;;;;;;11.69;100.00;99322.00;4313297;33;20085;-74
2022/09/21 06:06:38;;;;;;;10.90;5.40;;;;;;;11.41;100.00;99272.56;4318334;33;20041;-69
2022/09/21 06:09:04;;;;;;;9.32;5.15;;;;;;;11.51;100.00;99291.56;4339653;33;20423;-70
2022/09/21 06:11:31;;;;;;;10.93;6.12;;;;;;;11.40;100.00;99271.72;4339460;33;20083;-69
2022/09/21 06:14:00;;;;;;;9.98;5.07;;;;;;;11.55;100.00;99276.53;4339085;33;20044;-69
2022/09/21 06:16:26;;;;;;;6.12;4.70;;;;;;;11.23;100.00;99277.19;4337011;33;20033;-69
2022/09/21 06:18:53;;;;;;;7.78;4.97;;;;;;;11.19;100.00;99281.41;4338038;33;20059;-69
2022/09/21 06:21:19;;;;;;;9.60;4.28;;;;;;;11.80;100.00;99323.75;4340619;33;20028;-70
2022/09/21 06:23:45;;;;;;;8.93;3.80;;;;;;;11.03;100.00;99249.94;4386157;32;20052;-70
2022/09/21 06:26:12;;;;;;;10.32;4.53;;;;;;;11.47;100.00;99324.66;4412187;32;20103;-70
2022/09/21 06:28:38;;;;;;;6.32;4.90;;;;;;;11.37;100.00;99268.72;4414243;32;20068;-69
2022/09/21 06:31:05;;;;;;;6.22;3.95;;;;;;;11.35;100.00;99322.87;4414044;32;20356;-69
2022/09/21 06:33:34;;;;;;;5.65;4.37;;;;;;;11.23;100.00;99336.47;4414442;32;20487;-70
2022/09/21 06:36:00;;;;;;;8.75;5.07;;;;;;;11.06;100.00;99244.06;4393624;32;20057;-69
2022/09/21 06:38:27;;;;;;;10.05;4.53;;;;;;;11.78;100.00;99331.31;4397093;32;20026;-70
2022/09/21 06:40:59;;;;;;;9.57;4.90;;;;;;;11.35;100.00;99289.72;4398998;32;20059;-69
2022/09/21 06:43:25;;;;;;;9.18;4.25;;;;;;;11.57;100.00;99325.63;4398972;32;20023;-68
2022/09/21 06:45:57;;;;;;;8.55;4.47;;;;;;;11.22;100.00;99286.31;4398676;32;20104;-69
2022/09/21 06:48:24;;;;;;;;;;;;;;;11.76;100.00;99338.84;4374918;32;20089;-69
2022/09/21 06:50:50;;;;;;;8.35;5.12;;;;;;;11.75;100.00;99337.19;4368827;32;19986;-69
2022/09/21 06:53:17;;;;;;;7.72;5.37;;;;;;;11.73;100.00;99339.34;4394553;32;20066;-70
2022/09/21 06:55:43;;;;;;;9.85;4.95;;;;;;;11.78;100.00;99331.31;4399010;32;20204;-70
2022/09/21 06:58:10;;;;;;;7.20;4.25;;;;;;;11.24;100.00;99265.31;4398359;32;20035;-72
2022/09/21 07:00:36;;;;;;;9.88;4.68;;;;;;;11.39;100.00;99309.72;4400752;32;20097;-69
2022/09/21 07:03:03;;;;;;;10.15;4.57;;;;;;;11.72;100.00;99343.88;4413997;32;20052;-71
2022/09/21 07:05:29;;;;;;;9.63;5.25;;;;;;;11.68;100.00;99345.47;4379239;32;20054;-69
2022/09/21 07:07:56;;;;;;;7.87;5.07;;;;;;;11.25;100.00;99268.84;4375905;32;20032;-69
2022/09/21 07:10:24;;;;;;;5.35;3.75;;;;;;;11.63;100.00;99313.00;4371070;32;20039;-70
2022/09/21 07:12:51;;;;;;;5.03;3.83;;;;;;;12.12;100.00;99352.78;4385983;32;20084;-69
2022/09/21 07:15:20;;;;;;;7.72;3.30;;;;;;;12.06;100.00;99337.59;4399863;32;20060;-68
2022/09/21 07:17:47;;;;;;;5.80;3.67;;;;;;;11.57;100.00;99314.84;4401873;32;20064;-69
2022/09/21 07:20:13;;;;;;;7.37;3.30;;;;;;;11.55;100.00;99327.78;4369542;32;20043;-75
2022/09/21 07:22:39;;;;;;;6.07;3.50;;;;;;;11.71;100.00;99336.03;4355889;32;20047;-69
2022/09/21 07:25:06;;;;;;;3.45;2.80;;;;;;;11.40;100.00;99276.31;4356695;32;20388;-69
2022/09/21 07:27:33;;;;;;;4.62;3.15;;;;;;;12.25;100.00;99352.38;4356833;32;20081;-69
2022/09/21 07:29:59;;;;;;;6.85;3.65;;;;;;;12.57;100.00;99357.06;4355672;32;20027;-73
2022/09/21 07:32:26;;;;;;;5.25;3.15;;;;;;;13.04;100.00;99364.53;4354568;32;20122;-69
2022/09/21 07:34:55;;;;;;;4.82;2.67;;;;;;;12.60;100.00;99321.44;4355388;32;20069;-69
2022/09/21 07:37:26;;;;;;;11.82;3.78;;;;;;;12.76;100.00;99367.50;4380872;32;20080;-69
2022/09/21 07:39:53;;;;;;;3.03;2.35;;;;;;;12.68;100.00;99361.50;4378767;32;20039;-69
2022/09/21 07:42:21;;;;;;;3.97;2.92;;;;;;;12.64;100.00;99349.56;4378642;32;20057;-71
2022/09/21 07:44:48;;;;;;;3.15;2.25;;;;;;;12.76;100.00;99367.50;4380193;32;20076;-71
2022/09/21 07:47:15;;;;;;;2.45;2.25;;;;;;;12.47;100.00;99321.84;4383607;32;20035;-69
2022/09/21 07:49:41;;;;;;;3.53;2.30;;;;;;;12.31;100.00;99362.19;4371505;32;20120;-68
2022/09/21 07:52:08;;;;;;;4.28;2.97;;;;;;;12.35;100.00;99363.31;4367679;32;20040;-69
2022/09/21 07:54:35;;;;;;;6.85;2.62;;;;;;;12.20;100.00;99328.03;4380003;32;20597;-70
2022/09/21 07:59:48;;;;;;;3.50;2.40;;;;;;;12.67;100.00;99359.88;4382559;32;20185;-71
2022/09/21 08:02:14;;;;;;;5.12;2.10;;;;;;;12.83;100.00;99373.53;4382043;32;20387;-73
2022/09/21 08:04:40;;;;;;;4.82;2.53;;;;;;;12.53;100.00;99337.03;4383256;32;20078;-69
2022/09/21 08:07:07;;;;;;;6.55;2.67;;;;;;;12.27;100.00;99333.25;4386088;32;20047;-69
2022/09/21 08:09:34;;;;;;;7.35;2.95;;;;;;;12.56;100.00;99374.34;4386187;32;20376;-69
2022/09/21 08:12:01;;;;;;;2.87;2.45;;;;;;;12.72;100.00;99369.91;4416349;32;20087;-70
2022/09/21 08:14:28;;;;;;;4.70;1.75;;;;;;;12.46;100.00;99331.00;4421419;32;20065;-73
2022/09/21 08:16:54;;;;;;;1.85;1.73;;;;;;;12.55;100.00;99334.88;4433636;32;20315;-69
2022/09/21 08:19:24;;;;;;;2.87;2.20;;;;;;;12.61;100.00;99333.88;4433408;32;20072;-69
2022/09/21 08:21:51;;;;;;;3.87;2.05;;;;;;;12.57;100.00;99331.94;4432107;32;20055;-69
2022/09/21 08:24:19;;;;;;;5.57;2.30;;;;;;;12.82;100.00;99372.69;4433145;32;20345;-73
2022/09/21 08:26:45;;;;;;;2.90;2.00;;;;;;;12.85;100.00;99333.56;4431820;32;20038;-69
2022/09/21 08:29:14;;;;;;;3.35;1.85;;;;;;;13.25;100.00;99380.91;4433632;32;20046;-70
2022/09/21 08:31:42;;;;;;;4.00;2.28;;;;;;;12.75;100.00;99333.44;4433936;32;20052;-70
2022/09/21 08:34:09;;;;;;;3.53;1.60;;;;;;;12.79;100.00;99335.38;4432045;32;20038;-71
2022/09/21 08:36:35;;;;;;;4.62;2.17;;;;;;;13.14;100.00;99376.50;4429878;32;20461;-70
2022/09/21 08:39:05;;;;;;;1.95;1.85;;;;;;;13.19;100.00;99368.41;4433287;32;20041;-68
2022/09/21 08:42:05;;;;;;;5.35;1.90;;;;;;;12.91;100.00;99332.53;4433756;32;20111;-69
2022/09/21 08:44:47;;;;;;;3.28;2.33;;;;;;;13.19;100.00;99376.53;4433314;32;20237;-70
2022/09/21 08:47:19;;;;;;;3.20;1.83;;;;;;;13.33;100.00;99323.66;4433648;32;20056;-69
2022/09/21 08:49:52;;;;;;;4.72;1.70;;;;;;;13.76;100.00;99381.28;4431877;32;20433;-70
2022/09/21 08:52:23;;;;;;;6.90;2.42;;;;;;;13.52;100.00;99331.37;4433204;32;20422;-68
2022/09/21 08:54:50;;;;;;;4.13;2.17;;;;;;;13.30;100.00;99329.56;4433176;32;20048;-69
2022/09/21 08:57:17;;;;;;;3.50;2.10;;;;;;;13.42;100.00;99337.53;4431539;32;20029;-69
2022/09/21 08:59:46;;;;;;;4.32;1.85;;;;;;;13.62;100.00;99353.06;4432413;32;20383;-72
2022/09/21 09:02:37;;;;;;;3.78;2.10;;;;;;;13.46;100.00;99370.28;4430417;32;20451;-69
2022/09/21 09:05:06;;;;;;;2.42;1.40;;;;;;;13.50;100.00;99369.50;4432559;32;20091;-70
2022/09/21 09:07:48;;;;;;;1.70;1.42;;;;;;;13.68;100.00;99380.97;4429033;32;20390;-73
2022/09/21 09:10:33;;;;;;;4.70;1.83;;;;;;;13.42;100.00;99342.94;4415483;32;20064;-70
2022/09/21 09:13:22;;;;;;;5.12;1.50;;;;;;;13.78;100.00;99373.69;4413296;32;20266;-70
2022/09/21 09:16:09;;;;;;;1.73;1.62;;;;;;;13.53;100.00;99341.09;4415096;32;20460;-69
2022/09/21 09:18:47;;;;;;;1.23;1.15;;;;;;;13.78;100.00;99379.12;4411336;32;20030;-68
2022/09/21 09:21:43;;;;;;;6.82;2.05;;;;;;;13.58;100.00;99373.59;4415324;32;20047;-70
2022/09/21 09:24:28;;;;;;;1.75;1.65;;;;;;;13.65;100.00;99374.19;4367915;32;20031;-69
2022/09/21 09:27:21;;;;;;;1.67;1.25;;;;;;;13.63;100.00;99360.09;4369756;32;20040;-69
2022/09/21 09:30:01;;;;;;;2.58;1.52;;;;;;;14.06;100.00;99374.41;4368316;32;20054;-68
2022/09/21 09:33:01;;;;;;;4.85;1.65;;;;;;;13.87;100.00;99316.38;4369853;32;20034;-69
2022/09/21 09:35:32;;;;;;;9.38;1.33;;;;;;;14.35;100.00;99344.16;4367998;32;20031;-69
2022/09/21 09:38:14;;;;;;;3.58;1.58;;;;;;;14.20;100.00;99357.66;4369251;32;20044;-69
2022/09/21 09:40:47;;;;;;;1.25;1.10;;;;;;;13.58;100.00;99319.50;4370766;32;20165;-70
2022/09/21 09:43:28;;;;;;;1.95;0.93;;;;;;;14.01;100.00;99360.84;4384365;32;20054;-70
2022/09/21 09:46:04;;;;;;;1.80;1.00;;;;;;;13.95;100.00;99365.41;4384238;32;20038;-69
2022/09/21 09:48:45;;;;;;;1.62;1.20;;;;;;;14.16;100.00;99336.50;4382609;32;20432;-69
2022/09/21 09:51:12;;;;;;;3.97;1.40;;;;;;;14.25;100.00;99344.13;4384805;32;20094;-68
2022/09/21 09:53:40;;;;;;;1.67;1.58;;;;;;;14.17;100.00;99315.69;4399654;32;20030;-68
2022/09/21 09:56:09;;;;;;;1.75;1.65;;;;;;;14.28;100.00;99370.66;4399001;32;20162;-69
2022/09/21 09:58:48;;;;;;;2.83;1.48;;;;;;;14.03;100.00;99355.97;4399176;32;20169;-69
2022/09/21 10:01:40;;;;;;;1.62;1.60;;;;;;;13.50;100.00;99285.63;4412512;32;20457;-69
2022/09/21 10:04:13;;;;;;;2.60;1.02;;;;;;;14.04;100.00;99362.19;4416380;32;20042;-70
2022/09/21 10:06:40;;;;;;;1.75;1.12;;;;;;;14.08;100.00;99358.69;4417014;32;20031;-69
2022/09/21 10:09:34;;;;;;;1.27;1.12;;;;;;;14.10;100.00;99347.59;4417103;32;20433;-69
2022/09/21 10:12:23;;;;;;;1.25;1.12;;;;;;;14.20;100.00;99358.47;4416888;32;20042;-69
2022/09/21 10:14:56;;;;;;;0.98;0.98;;;;;;;14.29;100.00;99345.22;4415785;32;20336;-69
2022/09/21 10:17:24;;;;;;;1.35;1.00;;;;;;;14.44;100.00;99348.00;4416012;32;20073;-69
2022/09/21 10:20:03;;;;;;;3.30;0.73;;;;;;;14.09;100.00;99308.09;4416309;32;20072;-68
2022/09/21 10:22:29;;;;;;;2.10;0.90;;;;;;;14.48;100.00;99343.66;4416631;32;20048;-69
2022/09/21 10:25:04;;;;;;;1.60;1.10;;;;;;;14.48;100.00;99343.66;4416091;32;20071;-70
2022/09/21 10:27:34;;;;;;;3.00;1.15;;;;;;;14.21;100.00;99310.53;4416602;32;20290;-69
2022/09/21 10:30:01;;;;;;;1.95;1.30;;;;;;;14.29;100.00;99296.47;4397807;32;20086;-70
2022/09/21 10:32:29;;;;;;;4.30;1.70;;;;;;;14.26;100.00;99319.47;4399566;32;20053;-69
2022/09/21 10:35:11;;;;;;;1.23;1.10;;;;;;;14.71;100.00;99357.84;4396930;32;20049;-72
2022/09/21 10:38:17;;;;;;;4.45;1.17;;;;;;;14.48;100.00;99349.06;4399156;32;20394;-69
2022/09/21 10:40:46;;;;;;;1.40;1.00;;;;;;;14.72;100.00;99364.84;4399374;32;20188;-68
2022/09/21 10:43:32;;;;;;;5.05;0.90;;;;;;;14.24;100.00;99337.09;4399203;32;20456;-69
2022/09/21 10:45:59;;;;;;;5.90;1.00;;;;;;;14.57;100.00;99330.41;4412055;32;20364;-72
2022/09/21 10:48:27;;;;;;;6.47;1.12;;;;;;;14.49;100.00;99301.94;4412911;32;20081;-70
2022/09/21 10:50:55;;;;;;;1.27;1.17;;;;;;;14.53;100.00;99357.22;4416179;32;20034;-69
2022/09/21 10:53:29;;;;;;;0.90;0.90;;;;;;;14.25;100.00;99333.28;4417481;32;20074;-69
2022/09/21 10:55:57;;;;;;;6.47;1.75;;;;;;;13.88;100.00;99323.41;4416843;32;20042;-70
2022/09/21 10:58:24;;;;;;;2.10;1.30;;;;;;;14.02;100.00;99351.63;4416659;32;20380;-69
2022/09/21 11:00:52;;;;;;;4.82;1.23;;;;;;;13.84;100.00;99322.31;4418390;32;20030;-69
2022/09/21 11:03:43;;;;;;;4.55;1.65;;;;;;;14.03;100.00;99330.81;4419280;32;20047;-69
2022/09/21 11:06:15;;;;;;;2.00;1.48;;;;;;;14.51;100.00;99375.63;4419095;32;20092;-69
2022/09/21 11:08:53;;;;;;;1.58;1.48;;;;;;;14.49;100.00;99368.87;4419284;32;20060;-70
2022/09/21 11:11:34;;;;;;;1.23;1.17;;;;;;;14.48;100.00;99365.31;4419225;32;20048;-73
2022/09/21 11:14:25;;;;;;;0.73;0.70;;;;;;;14.52;100.00;99352.87;4419273;32;20080;-68
2022/09/21 11:17:01;;;;;;;1.08;1.08;;;;;;;14.77;100.00;99354.03;4418638;32;20437;-69
2022/09/21 11:19:55;;;;;;;0.88;0.82;;;;;;;15.61;100.00;99351.81;4418584;32;20026;-70
2022/09/21 11:22:52;;;;;;;3.12;0.80;;;;;;;16.11;100.00;99346.50;4419162;32;20060;-69
2022/09/21 11:25:29;;;;;;;1.02;1.00;;;;;;;15.72;100.00;99344.47;4419083;32;20424;-69
2022/09/21 11:28:32;;;;;;;1.50;1.10;;;;;;;15.47;100.00;99358.09;4419065;32;20153;-69
2022/09/21 11:31:19;;;;;;;0.95;0.95;;;;;;;15.25;100.00;99368.16;4419153;32;20114;-69
2022/09/21 11:34:04;;;;;;;9.02;1.40;;;;;;;15.23;100.00;99321.47;4418654;32;20038;-70
2022/09/21 11:36:40;;;;;;;0.65;0.65;;;;;;;15.89;100.00;99355.03;4432748;32;20079;-69
2022/09/21 11:39:09;;;;;;;1.10;0.70;;;;;;;15.75;100.00;99315.97;4434156;32;20042;-69
2022/09/21 11:41:44;;;;;;;0.90;0.90;;;;;;;16.15;100.00;99298.69;4431673;32;20041;-69
2022/09/21 11:44:35;;;;;;;0.70;0.70;;;;;;;16.39;100.00;99335.25;4434203;32;20153;-69
2022/09/21 11:47:11;;;;;;;0.80;0.80;;;;;;;16.17;100.00;99301.13;4431595;32;20060;-70
2022/09/21 11:49:56;;;;;;;0.77;0.77;;;;;;;15.74;100.00;99341.47;4416477;32;20064;-68
2022/09/21 11:53:03;;;;;;;2.37;0.90;;;;;;;15.29;100.00;99352.13;4416287;32;20375;-74
2022/09/21 11:56:12;;;;;;;2.33;1.00;;;;;;;15.01;100.00;99346.19;4354788;32;20065;-69